Time;durP1;ratioP1;P1;durP2;ratioP2;P2;SDS_P1;SDS_P2;PMS_P1;PMS_P2;Temp;Humidity;BMP_temperature;BMP_pressure;BME280_temperature;BME280_humidity;BME280_pressure;Samples;Min_cycle;Max_cycle;Signal;HPM_P1;HPM_P2
2021/12/13 00:03:34;;;;;;;;;;;3.80;99.90;;;2.67;100.00;96553.94;10507872;28;1972;-80
2021/12/13 00:08:37;;;;;;;;;;;3.70;99.90;;;2.68;100.00;96560.88;10522803;28;1828;-81
2021/12/13 00:13:41;;;;;;;;;;;3.70;99.90;;;2.59;100.00;96567.41;10509559;28;1912;-81
2021/12/13 00:18:44;;;;;;;;;;;3.60;99.90;;;2.58;100.00;96564.94;10487565;28;1797;-80
2021/12/13 00:23:48;;;;;;;;;;;3.60;99.90;;;2.52;100.00;96561.28;10489758;28;1942;-79
2021/12/13 00:28:51;;;;;;;;;;;3.50;99.90;;;2.44;100.00;96553.53;10482814;28;1899;-82
2021/12/13 00:33:55;;;;;;;;;;;3.50;99.90;;;2.49;100.00;96556.38;10482125;28;1972;-81
2021/12/13 00:38:58;;;;;;;;;;;3.50;99.90;;;2.42;100.00;96566.19;10484569;28;2291;-81
2021/12/13 00:44:14;;;;;;;;;;;3.50;99.90;;;2.43;100.00;96565.16;10484481;28;1920;-78
2021/12/13 00:49:18;;;;;;;;;;;3.50;99.90;;;2.56;100.00;96569.66;10488656;28;1975;-80
2021/12/13 00:54:21;;;;;;;;;;;3.60;99.90;;;2.59;100.00;96578.00;10489537;28;1389;-81
2021/12/13 00:59:25;;;;;;;;;;;3.60;99.90;;;2.60;100.00;96566.38;10504484;28;1758;-79
2021/12/13 01:04:40;;;;;;;;;;;3.70;99.90;;;2.64;100.00;96567.59;10492438;28;2002;-79
2021/12/13 01:09:43;;;;;;;;;;;3.70;99.90;;;2.72;100.00;96577.19;10484727;28;1891;-78
2021/12/13 01:14:53;;;;;;;;;;;3.60;99.90;;;2.67;100.00;96580.50;10487090;28;2225;-80
2021/12/13 01:19:58;;;;;;;;;;;3.60;99.90;;;2.64;100.00;96586.19;10483939;28;1783;-84
2021/12/13 01:25:21;;;;;;;;;;;3.60;99.90;;;2.71;100.00;96586.19;10494886;28;2156;-80
2021/12/13 01:30:25;;;;;;;;;;;3.70;99.90;;;2.72;100.00;96593.13;10497638;28;2035;-80
2021/12/13 01:35:28;;;;;;;;;;;3.60;99.90;;;2.71;100.00;96597.63;10489563;28;1884;-80
2021/12/13 01:40:34;;;;;;;;;;;3.70;99.90;;;2.77;100.00;96597.84;10480941;28;1822;-80
2021/12/13 01:45:39;;;;;;;;;;;3.70;99.90;;;2.68;100.00;96603.34;10494665;28;1918;-78
2021/12/13 01:50:47;;;;;;;;;;;3.70;99.90;;;2.70;100.00;96603.97;10492668;28;1930;-76
2021/12/13 01:55:50;;;;;;;;;;;3.70;99.90;;;2.72;100.00;96601.91;10495647;28;1892;-83
2021/12/13 02:01:12;;;;;;;;;;;3.70;99.90;;;2.70;100.00;96596.00;10531350;28;2342;-83
2021/12/13 02:06:21;;;;;;;;;;;3.80;99.90;;;2.62;100.00;96600.69;10537176;28;1890;-81
2021/12/13 02:11:25;;;;;;;;;;;3.90;99.90;;;2.75;100.00;96598.03;10511680;28;1622;-80
2021/12/13 02:22:18;;;;;;;;;;;3.60;99.90;;;2.83;100.00;96597.03;10499709;28;1914;-81
2021/12/13 02:33:02;;;;;;;;;;;3.80;99.90;;;2.79;100.00;96606.41;10482706;28;1826;-80
2021/12/13 02:38:06;;;;;;;;;;;3.80;99.90;;;2.87;100.00;96600.91;10483041;28;1767;-78
2021/12/13 02:43:09;;;;;;;;;;;3.80;99.90;;;2.83;100.00;96600.50;10491140;28;1918;-81
2021/12/13 02:48:13;;;;;;;;;;;3.80;99.90;;;2.81;100.00;96607.84;10504628;28;1932;-82
2021/12/13 02:53:16;;;;;;;;;;;3.80;99.90;;;2.82;100.00;96606.00;10512632;28;1904;-80
2021/12/13 02:58:19;;;;;;;;;;;3.70;99.90;;;2.77;100.00;96611.09;10497912;28;1847;-77
2021/12/13 03:03:23;;;;;;;;;;;3.80;99.90;;;2.71;100.00;96608.25;10487688;28;2300;-82
2021/12/13 03:08:26;;;;;;;;;;;3.80;99.90;;;2.78;100.00;96607.44;10491133;28;1801;-81
2021/12/13 03:13:30;;;;;;;;;;;3.70;99.90;;;2.80;100.00;96610.69;10492762;28;1851;-80
2021/12/13 03:18:33;;;;;;;;;;;3.90;99.90;;;2.77;100.00;96611.94;10485263;28;1939;-79
2021/12/13 03:23:36;;;;;;;;;;;3.80;99.90;;;2.83;100.00;96611.09;10488262;28;1956;-81
2021/12/13 03:28:40;;;;;;;;;;;3.80;99.90;;;2.84;100.00;96614.59;10491376;28;1896;-78
2021/12/13 03:33:44;;;;;;;;;;;3.80;99.90;;;2.95;100.00;96604.16;10489747;28;1848;-77
2021/12/13 03:38:55;;;;;;;;;;;3.80;99.90;;;2.86;100.00;96609.88;10484788;28;2212;-81
2021/12/13 03:43:58;;;;;;;;;;;3.80;99.90;;;2.90;100.00;96600.50;10485115;28;1884;-81
2021/12/13 03:49:01;;;;;;;;;;;3.90;99.90;;;2.90;100.00;96595.19;10492937;28;1919;-82
2021/12/13 03:54:04;;;;;;;;;;;4.20;99.90;;;2.95;100.00;96600.69;10487391;28;1609;-80
2021/12/13 03:59:08;;;;;;;;;;;4.00;99.90;;;2.94;100.00;96607.84;10488859;28;1538;-78
2021/12/13 04:04:11;;;;;;;;;;;4.00;99.90;;;2.94;100.00;96602.53;10482789;28;2092;-80
2021/12/13 04:09:14;;;;;;;;;;;4.00;99.90;;;3.01;100.00;96613.16;10487098;28;1840;-79
2021/12/13 04:14:21;;;;;;;;;;;4.10;99.90;;;2.97;100.00;96618.03;10497131;28;2020;-80
2021/12/13 04:19:36;;;;;;;;;;;4.00;99.90;;;3.00;100.00;96614.19;10486988;28;2042;-82
2021/12/13 04:24:52;;;;;;;;;;;4.10;99.90;;;2.91;100.00;96618.06;10482180;28;1905;-81
2021/12/13 04:29:55;;;;;;;;;;;4.00;99.90;;;2.99;100.00;96620.53;10480008;28;1785;-82
2021/12/13 04:34:58;;;;;;;;;;;4.10;99.90;;;3.10;100.00;96630.50;10486025;28;2045;-81
2021/12/13 04:40:01;;;;;;;;;;;4.10;99.90;;;3.11;100.00;96626.81;10493738;28;1908;-77
2021/12/13 04:45:04;;;;;;;;;;;4.20;99.90;;;3.17;100.00;96635.81;10519668;28;1887;-84
2021/12/13 04:50:08;;;;;;;;;;;4.20;99.90;;;3.22;100.00;96642.16;10493530;28;1435;-81
2021/12/13 04:55:15;;;;;;;;;;;4.30;99.90;;;3.30;100.00;96642.94;10482635;28;1994;-79
2021/12/13 05:00:18;;;;;;;;;;;4.30;99.90;;;3.33;100.00;96647.88;10489707;28;1823;-77
2021/12/13 05:05:21;;;;;;;;;;;4.30;99.90;;;3.34;100.00;96646.84;10486317;28;1935;-81
2021/12/13 05:10:25;;;;;;;;;;;4.40;99.90;;;3.38;100.00;96650.72;10492259;28;1864;-81
2021/12/13 05:15:28;;;;;;;;;;;4.40;99.90;;;3.41;100.00;96647.66;10504857;28;2213;-81
2021/12/13 05:20:37;;;;;;;;;;;4.50;99.90;;;3.40;100.00;96656.66;10492112;28;1836;-77
2021/12/13 05:25:40;;;;;;;;;;;4.40;99.90;;;3.42;100.00;96651.94;10493066;28;2166;-80
2021/12/13 05:30:57;;;;;;;;;;;4.50;99.90;;;3.46;100.00;96658.47;10489044;28;1916;-81
2021/12/13 05:36:00;;;;;;;;;;;4.50;99.90;;;3.35;100.00;96661.75;10495705;28;1924;-81
2021/12/13 05:41:03;;;;;;;;;;;4.50;99.90;;;3.46;100.00;96667.28;10491956;28;1849;-77
2021/12/13 05:46:09;;;;;;;;;;;4.40;99.90;;;3.43;100.00;96650.91;10499875;28;2151;-80
2021/12/13 05:51:13;;;;;;;;;;;4.50;99.90;;;3.48;100.00;96659.06;10487604;22;2255;-78
2021/12/13 05:56:16;;;;;;;;;;;4.50;99.90;;;3.52;100.00;96655.00;10476301;28;2265;-79
2021/12/13 06:01:19;;;;;;;;;;;4.50;99.90;;;3.56;100.00;96647.41;10454810;28;2281;-78
2021/12/13 06:06:22;;;;;;;;;;;4.60;99.90;;;3.61;100.00;96655.59;10460017;28;1969;-78
2021/12/13 06:11:32;;;;;;;;;;;4.70;99.90;;;3.62;100.00;96647.38;10467714;28;1869;-77
2021/12/13 06:16:35;;;;;;;;;;;4.90;99.90;;;3.63;100.00;96649.06;10458078;28;1849;-77
2021/12/13 06:21:38;;;;;;;;;;;4.80;99.90;;;3.63;100.00;96649.06;10461935;28;1804;-79
2021/12/13 06:26:41;;;;;;;;;;;4.70;99.90;;;3.62;100.00;96652.72;10456430;28;1917;-76
2021/12/13 06:31:44;;;;;;;;;;;4.70;99.90;;;3.76;100.00;96675.59;10453430;28;1909;-80
2021/12/13 06:36:47;;;;;;;;;;;4.90;99.90;;;3.83;100.00;96677.44;10448202;28;1719;-79
2021/12/13 06:41:50;;;;;;;;;;;4.80;99.90;;;3.82;100.00;96676.63;10441161;28;1831;-79
2021/12/13 06:46:53;;;;;;;;;;;4.80;99.90;;;3.89;100.00;96679.25;10442039;28;1917;-77
2021/12/13 06:51:56;;;;;;;;;;;4.80;99.90;;;3.92;100.00;96692.94;10441575;28;1792;-78
2021/12/13 06:57:02;;;;;;;;;;;4.90;99.90;;;3.96;100.00;96688.03;10445380;28;1874;-78
2021/12/13 07:02:05;;;;;;;;;;;4.80;99.90;;;3.90;100.00;96691.53;10439526;28;1815;-80
2021/12/13 07:07:09;;;;;;;;;;;4.90;99.90;;;3.90;100.00;96702.16;10453375;28;1917;-80
2021/12/13 07:12:12;;;;;;;;;;;4.90;99.90;;;3.91;100.00;96709.13;10470223;28;1402;-77
2021/12/13 07:17:16;;;;;;;;;;;5.00;99.90;;;3.93;100.00;96713.19;10459412;28;1939;-75
2021/12/13 07:22:22;;;;;;;;;;;5.00;99.90;;;3.96;100.00;96718.09;10475628;28;2233;-78
2021/12/13 07:27:25;;;;;;;;;;;4.90;99.90;;;3.93;100.00;96729.16;10466970;28;1953;-77
2021/12/13 07:32:28;;;;;;;;;;;5.00;99.90;;;3.92;100.00;96737.34;10457487;28;1807;-77
2021/12/13 07:37:31;;;;;;;;;;;5.00;99.90;;;3.83;100.00;96738.59;10458202;28;1927;-78
2021/12/13 07:42:34;;;;;;;;;;;4.90;99.90;;;3.83;100.00;96733.28;10442853;28;1797;-77
2021/12/13 07:47:38;;;;;;;;;;;4.90;99.90;;;3.91;100.00;96741.84;10438870;28;1982;-78
2021/12/13 07:52:41;;;;;;;;;;;4.90;99.90;;;4.01;100.00;96752.88;10433263;28;1742;-76
2021/12/13 07:57:45;;;;;;;;;;;4.90;99.90;;;4.06;100.00;96744.25;10446683;28;2410;-78
2021/12/13 08:02:48;;;;;;;;;;;5.00;99.90;;;3.99;100.00;96744.28;10440492;28;1940;-78
2021/12/13 08:07:52;;;;;;;;;;;5.00;99.90;;;4.03;100.00;96750.00;10447508;28;1914;-76
2021/12/13 08:12:56;;;;;;;;;;;5.00;99.90;;;4.11;100.00;96746.31;10440197;28;1863;-76
2021/12/13 08:17:59;;;;;;;;;;;5.10;99.90;;;4.17;100.00;96748.94;10441403;28;1839;-79
2021/12/13 08:23:02;;;;;;;;;;;5.20;99.90;;;4.18;100.00;96752.44;10450661;28;1882;-77
2021/12/13 08:28:05;;;;;;;;;;;5.10;99.90;;;4.26;100.00;96754.84;10442226;28;1906;-76
2021/12/13 08:33:08;;;;;;;;;;;5.10;99.90;;;4.34;100.00;96754.63;10443815;28;1800;-76
2021/12/13 08:38:11;;;;;;;;;;;5.20;99.90;;;4.41;100.00;96760.75;10435936;28;1953;-77
2021/12/13 08:43:13;;;;;;;;;;;5.30;99.90;;;4.56;100.00;96766.63;10450546;28;1881;-76
2021/12/13 08:48:17;;;;;;;;;;;5.30;99.90;;;4.54;100.00;96774.00;10441242;28;1985;-76
2021/12/13 08:53:20;;;;;;;;;;;5.40;99.90;;;4.59;100.00;96776.88;10447503;28;1843;-77
2021/12/13 08:58:23;;;;;;;;;;;6.00;99.90;;;4.57;100.00;96778.91;10438508;28;2516;-76
2021/12/13 09:03:26;;;;;;;;;;;5.40;99.90;;;4.85;100.00;96781.25;10453600;28;2021;-77
2021/12/13 09:08:29;;;;;;;;;;;5.50;99.90;;;5.06;100.00;96776.63;10449863;28;1997;-76
2021/12/13 09:13:35;;;;;;;;;;;5.70;99.90;;;5.16;100.00;96779.66;10448100;28;2074;-77
2021/12/13 09:18:38;;;;;;;;;;;5.90;99.90;;;5.41;100.00;96780.50;10450739;28;1785;-76
2021/12/13 09:23:41;;;;;;;;;;;6.00;99.90;;;5.59;100.00;96781.59;10457281;28;2418;-77
2021/12/13 09:28:44;;;;;;;;;;;6.30;99.90;;;5.38;100.00;96780.13;10445442;28;1917;-78
2021/12/13 09:33:48;;;;;;;;;;;6.40;99.90;;;5.44;100.00;96779.25;10434497;28;2264;-77
2021/12/13 09:38:51;;;;;;;;;;;6.40;99.90;;;5.53;100.00;96777.94;10446040;28;1854;-76
2021/12/13 09:43:54;;;;;;;;;;;6.50;99.90;;;5.59;100.00;96777.06;10439143;28;1868;-78
2021/12/13 09:48:57;;;;;;;;;;;6.50;99.90;;;5.85;100.00;96769.88;10443000;28;1936;-77
2021/12/13 09:54:00;;;;;;;;;;;6.60;99.90;;;6.31;100.00;96776.66;10441661;28;1924;-78
2021/12/13 09:59:05;;;;;;;;;;;6.80;99.90;;;6.58;100.00;96763.81;10427336;28;1912;-78
2021/12/13 10:04:08;;;;;;;;;;;;;;;6.40;100.00;96761.97;10433437;28;1841;-78
2021/12/13 10:09:12;;;;;;;;;;;;;;;6.27;100.00;96768.28;10448201;28;2342;-77
2021/12/13 10:14:15;;;;;;;;;;;;;;;6.29;100.00;96763.50;10454099;28;1856;-78
2021/12/13 10:19:19;;;;;;;;;;;;;;;6.36;100.00;96761.63;10450475;28;1905;-77
2021/12/13 10:24:23;;;;;;;;;;;;;;;6.26;100.00;96747.94;10452473;28;1973;-77
2021/12/13 10:29:26;;;;;;;;;;;;;;;6.00;100.00;96750.91;10457732;28;1800;-77
2021/12/13 10:34:30;;;;;;;;;;;;;;;5.89;100.00;96742.53;10455179;28;1865;-78
2021/12/13 10:39:33;;;;;;;;;;;;;;;5.80;100.00;96743.06;10443470;28;1863;-78
2021/12/13 10:44:43;;;;;;;;;;;;;;;5.94;100.00;96737.41;10447405;28;1910;-78
2021/12/13 10:49:46;;;;;;;;;;;6.70;99.90;;;5.87;100.00;96728.63;10438398;28;2011;-78
2021/12/13 10:54:48;;;;;;;;;;;6.80;99.90;;;5.58;100.00;96739.94;10458781;28;2345;-78
2021/12/13 10:59:51;;;;;;;;;;;6.70;99.90;;;5.76;100.00;96732.00;10439069;28;1980;-80
2021/12/13 11:04:55;;;;;;;;;;;6.70;99.90;;;5.81;100.00;96736.69;10456936;28;1936;-78
2021/12/13 11:09:58;;;;;;;;;;;6.70;99.90;;;5.87;100.00;96733.13;10478795;28;2159;-82
2021/12/13 11:15:00;;;;;;;;;;;6.80;99.90;;;6.35;100.00;96727.09;10466977;28;2116;-81
2021/12/13 11:20:03;;;;;;;;;;;7.00;99.90;;;6.66;100.00;96724.25;10450511;28;1973;-78
2021/12/13 11:25:06;;;;;;;;;;;7.20;99.90;;;7.07;100.00;96714.66;10447824;28;1925;-80
2021/12/13 11:30:10;;;;;;;;;;;7.50;99.90;;;6.62;100.00;96720.41;10436027;28;1910;-81
2021/12/13 11:35:13;;;;;;;;;;;7.50;99.90;;;6.37;100.00;96703.69;10451404;28;1869;-80
2021/12/13 11:40:16;;;;;;;;;;;7.50;99.90;;;6.12;100.00;96701.09;10453518;28;1857;-79
2021/12/13 11:45:19;;;;;;;;;;;7.30;99.90;;;6.37;100.00;96693.81;10462877;28;1891;-80
2021/12/13 11:50:22;;;;;;;;;;;7.20;99.90;;;6.20;100.00;96695.44;10452687;28;1916;-80
2021/12/13 11:55:26;;;;;;;;;;;7.30;99.90;;;6.42;100.00;96691.25;10499518;22;1904;-71
2021/12/13 12:00:29;;;;;;;;;;;7.30;99.90;;;6.52;100.00;96680.06;10477519;28;1991;-71
2021/12/13 12:05:32;;;;;;;;;;;7.40;99.90;;;6.17;100.00;96683.38;10476538;28;1899;-71
2021/12/13 12:10:35;;;;;;;;;;;7.30;99.90;;;6.30;100.00;96669.03;10461434;28;1918;-72
2021/12/13 12:15:39;;;;;;;;;;;7.20;99.90;;;6.34;100.00;96667.53;10457777;28;1882;-71
2021/12/13 12:20:43;;;;;;;;;;;7.20;99.90;;;6.54;100.00;96663.78;10431382;28;1917;-73
2021/12/13 12:25:45;;;;;;;;;;;7.30;99.90;;;6.30;100.00;96663.69;10445600;28;1961;-72
2021/12/13 12:30:49;;;;;;;;;;;7.40;99.90;;;6.42;100.00;96653.06;10458499;28;1825;-71
2021/12/13 12:35:51;;;;;;;;;;;7.30;99.90;;;6.46;100.00;96655.06;10444703;28;1828;-74
2021/12/13 12:40:54;;;;;;;;;;;7.30;99.90;;;6.41;100.00;96657.59;10439954;28;2429;-75
2021/12/13 12:45:57;;;;;;;;;;;7.40;99.90;;;6.33;100.00;96657.09;10434036;28;1972;-72
2021/12/13 12:51:00;;;;;;;;;;;7.40;99.90;;;5.93;100.00;96666.38;10438031;28;1763;-72
2021/12/13 12:56:03;;;;;;;;;;;7.10;99.90;;;6.14;100.00;96666.97;10427752;28;1930;-72
2021/12/13 13:01:06;;;;;;;;;;;7.00;99.90;;;6.13;100.00;96655.47;10421853;28;1865;-71
2021/12/13 13:06:09;;;;;;;;;;;7.10;99.90;;;6.29;100.00;96656.72;10421474;28;1971;-71
2021/12/13 13:11:27;;;;;;;;;;;7.00;99.90;;;6.09;100.00;96672.97;10421410;28;1781;-70
2021/12/13 13:16:30;;;;;;;;;;;7.00;99.90;;;5.87;100.00;96669.91;10421648;28;1926;-71
2021/12/13 13:21:33;;;;;;;;;;;7.00;99.90;;;5.89;100.00;96678.50;10427831;28;1879;-71
2021/12/13 13:26:36;;;;;;;;;;;6.90;99.90;;;5.71;100.00;96673.13;10430283;28;1914;-69
2021/12/13 13:31:38;;;;;;;;;;;6.80;99.90;;;5.70;100.00;96682.19;10428744;28;2150;-70
2021/12/13 13:36:41;;;;;;;;;;;6.60;99.90;;;5.63;100.00;96682.25;10428219;28;1946;-70
2021/12/13 13:41:45;;;;;;;;;;;6.60;99.90;;;5.58;100.00;96689.28;10432894;28;1904;-71
2021/12/13 13:46:47;;;;;;;;;;;6.60;99.90;;;5.62;100.00;96687.81;10438919;28;1934;-71
2021/12/13 13:51:51;;;;;;;;;;;6.60;99.90;;;5.78;100.00;96689.09;10441099;28;1830;-70
2021/12/13 13:56:54;;;;;;;;;;;6.60;99.90;;;5.79;100.00;96678.22;10440225;28;2226;-71
2021/12/13 14:01:58;;;;;;;;;;;6.40;99.90;;;5.93;100.00;96687.75;10429689;28;1889;-70
2021/12/13 14:07:01;;;;;;;;;;;6.80;99.90;;;6.02;100.00;96676.75;10439345;28;1981;-70
2021/12/13 14:12:04;;;;;;;;;;;6.90;99.90;;;5.99;100.00;96677.22;10433825;28;1866;-70
2021/12/13 14:17:07;;;;;;;;;;;6.80;99.90;;;5.67;100.00;96682.66;10429266;28;1916;-70
2021/12/13 14:22:10;;;;;;;;;;;6.80;99.90;;;5.47;100.00;96687.31;10432854;28;1900;-71
2021/12/13 14:27:13;;;;;;;;;;;6.50;99.90;;;5.55;100.00;96690.53;10427217;28;1988;-72
2021/12/13 14:32:16;;;;;;;;;;;6.40;99.90;;;5.47;100.00;96703.31;10424665;28;1866;-70
2021/12/13 14:37:22;;;;;;;;;;;6.40;99.90;;;5.24;100.00;96694.09;10439109;28;1891;-69
2021/12/13 14:42:25;;;;;;;;;;;6.40;99.90;;;5.22;100.00;96706.81;10438117;28;1814;-70
2021/12/13 14:47:28;;;;;;;;;;;6.30;99.90;;;5.19;100.00;96699.25;10460186;28;2244;-69
2021/12/13 14:52:31;;;;;;;;;;;6.30;99.90;;;5.35;100.00;96701.38;10432561;28;2075;-70
2021/12/13 14:57:34;;;;;;;;;;;6.30;99.90;;;5.41;100.00;96719.19;10436508;28;2441;-70
2021/12/13 15:02:36;;;;;;;;;;;6.30;99.90;;;5.38;100.00;96708.94;10434639;28;1955;-71
2021/12/13 15:07:39;;;;;;;;;;;6.30;99.90;;;5.31;100.00;96718.84;10434763;28;1918;-71
2021/12/13 15:12:43;;;;;;;;;;;6.30;99.90;;;5.25;100.00;96719.72;10426929;28;1815;-71
2021/12/13 15:17:46;;;;;;;;;;;6.20;99.90;;;5.14;100.00;96715.06;10428568;28;1821;-70
2021/12/13 15:22:49;;;;;;;;;;;6.20;99.90;;;5.11;100.00;96715.50;10436870;28;1875;-72
2021/12/13 15:27:53;;;;;;;;;;;6.30;99.90;;;5.03;100.00;96723.78;10444928;28;1879;-71
2021/12/13 15:32:58;;;;;;;;;;;6.20;99.90;;;5.11;100.00;96726.97;10433444;28;1879;-70
2021/12/13 15:38:00;;;;;;;;;;;6.10;99.90;;;5.11;100.00;96723.50;10429099;28;1903;-72
2021/12/13 15:43:04;;;;;;;;;;;6.10;99.90;;;5.12;100.00;96728.63;10431520;28;1788;-71
2021/12/13 15:53:28;;;;;;;;;;;6.20;99.90;;;5.16;100.00;96731.69;10430197;28;1893;-70
2021/12/13 15:58:31;;;;;;;;;;;6.20;99.90;;;5.06;100.00;96726.81;10440190;28;1897;-71
2021/12/13 16:03:35;;;;;;;;;;;6.20;99.90;;;5.07;100.00;96730.28;10427551;28;1853;-71
2021/12/13 16:08:38;;;;;;;;;;;6.10;99.90;;;5.03;100.00;96737.09;10428434;28;1967;-70
2021/12/13 16:13:40;;;;;;;;;;;6.20;99.90;;;4.95;100.00;96732.81;10428933;28;1875;-71
2021/12/13 16:18:44;;;;;;;;;;;6.00;99.90;;;4.91;100.00;96736.16;10434070;28;1821;-70
2021/12/13 16:23:47;;;;;;;;;;;6.00;99.90;;;5.11;100.00;96736.84;10433887;28;2032;-72
2021/12/13 16:29:11;;;;;;;;;;;6.10;99.90;;;5.14;100.00;96733.72;10429227;28;1902;-71
2021/12/13 16:34:20;;;;;;;;;;;6.10;99.90;;;5.18;100.00;96748.25;10422495;28;2218;-71
2021/12/13 16:39:23;;;;;;;;;;;6.10;99.90;;;5.14;100.00;96742.53;10424935;28;1885;-70
2021/12/13 16:44:26;;;;;;;;;;;6.20;99.90;;;5.20;100.00;96746.19;10443412;28;1871;-69
2021/12/13 16:49:30;;;;;;;;;;;6.30;99.90;;;5.10;100.00;96735.22;10430351;28;1979;-70
2021/12/13 16:54:33;;;;;;;;;;;6.20;99.90;;;5.11;100.00;96742.97;10426757;28;2453;-71
2021/12/13 16:59:36;;;;;;;;;;;6.10;99.90;;;5.26;100.00;96747.19;10431922;28;1877;-69
2021/12/13 17:04:39;;;;;;;;;;;6.20;99.90;;;5.19;100.00;96744.56;10448885;28;1963;-70
2021/12/13 17:09:42;;;;;;;;;;;6.30;99.90;;;5.13;100.00;96740.09;10455634;28;2198;-70
2021/12/13 17:14:57;;;;;;;;;;;6.10;99.90;;;5.06;100.00;96736.66;10441232;28;1936;-70
2021/12/13 17:20:00;;;;;;;;;;;6.10;99.90;;;4.99;100.00;96741.22;10430954;28;1963;-70
2021/12/13 17:25:03;;;;;;;;;;;6.10;99.90;;;5.04;100.00;96738.72;10430612;28;1885;-71
2021/12/13 17:30:06;;;;;;;;;;;6.10;99.90;;;4.99;100.00;96728.72;10429395;28;1923;-70
2021/12/13 17:35:10;;;;;;;;;;;6.10;99.90;;;4.99;100.00;96734.03;10446191;28;1877;-71
2021/12/13 17:40:13;;;;;;;;;;;6.10;99.90;;;5.03;100.00;96731.78;10428527;28;1900;-71
2021/12/13 17:45:16;;;;;;;;;;;6.10;99.90;;;5.12;100.00;96727.81;10437031;28;1831;-70
2021/12/13 17:50:19;;;;;;;;;;;6.00;99.90;;;5.12;100.00;96744.59;10430443;28;2226;-70
2021/12/13 17:55:22;;;;;;;;;;;6.10;99.90;;;5.15;100.00;96751.34;10429275;28;1784;-71
2021/12/13 18:00:25;;;;;;;;;;;6.20;99.90;;;5.16;100.00;96755.66;10433244;28;1833;-71
2021/12/13 18:05:27;;;;;;;;;;;6.10;99.90;;;5.14;100.00;96763.03;10430363;28;1829;-69
2021/12/13 18:10:31;;;;;;;;;;;6.20;99.90;;;5.12;100.00;96757.13;10434577;28;1983;-71
2021/12/13 18:15:34;;;;;;;;;;;6.20;99.90;;;5.18;100.00;96763.44;10433906;28;1867;-73
2021/12/13 18:20:37;;;;;;;;;;;6.20;99.90;;;5.18;100.00;96766.09;10436229;28;2178;-72
2021/12/13 18:25:40;;;;;;;;;;;6.20;99.90;;;5.14;100.00;96763.03;10431568;28;1918;-72
2021/12/13 18:30:43;;;;;;;;;;;6.20;99.90;;;5.06;100.00;96765.97;10422635;28;1914;-71
2021/12/13 18:35:46;;;;;;;;;;;6.10;99.90;;;4.99;100.00;96762.53;10427463;28;1809;-72
2021/12/13 18:40:51;;;;;;;;;;;6.00;99.90;;;4.92;100.00;96759.91;10432755;28;1837;-73
2021/12/13 18:45:54;;;;;;;;;;;6.00;99.90;;;4.72;100.00;96757.34;10431661;28;1830;-71
2021/12/13 18:50:57;;;;;;;;;;;5.90;99.90;;;4.80;100.00;96762.41;10426553;28;1898;-71
2021/12/13 18:56:00;;;;;;;;;;;5.80;99.90;;;4.81;100.00;96769.38;10429915;28;1864;-70
2021/12/13 19:01:03;;;;;;;;;;;5.90;99.90;;;4.86;100.00;96764.25;10429496;28;1892;-71
2021/12/13 19:06:07;;;;;;;;;;;5.90;99.90;;;4.80;100.00;96757.09;10433589;28;1808;-75
2021/12/13 19:11:11;;;;;;;;;;;5.90;99.90;;;4.73;100.00;96755.50;10433174;28;2014;-74
2021/12/13 19:16:14;;;;;;;;;;;5.90;99.90;;;4.52;100.00;96753.97;10440421;28;1811;-75
2021/12/13 19:21:17;;;;;;;;;;;5.70;99.90;;;4.37;100.00;96758.72;10443032;28;2179;-75
2021/12/13 19:26:20;;;;;;;;;;;5.50;99.90;;;4.26;100.00;96752.19;10426968;28;1896;-78
2021/12/13 19:31:23;;;;;;;;;;;5.40;99.90;;;4.24;100.00;96752.41;10435098;28;1923;-71
2021/12/13 19:36:26;;;;;;;;;;;5.30;99.90;;;4.14;100.00;96751.22;10432682;28;1871;-75
2021/12/13 19:41:30;;;;;;;;;;;5.30;99.90;;;4.20;100.00;96743.22;10433163;28;1805;-71
2021/12/13 19:46:33;;;;;;;;;;;5.20;99.90;;;4.28;100.00;96737.66;10424868;28;1898;-71
2021/12/13 19:51:36;;;;;;;;;;;5.30;99.90;;;4.11;100.00;96736.47;10424426;28;1917;-72
2021/12/13 19:56:38;;;;;;;;;;;5.20;99.90;;;4.04;100.00;96746.31;10437574;28;1434;-72
2021/12/13 20:01:41;;;;;;;;;;;5.10;99.90;;;3.97;100.00;96748.19;10429468;28;1396;-72
2021/12/13 20:06:44;;;;;;;;;;;5.10;99.90;;;3.92;100.00;96747.97;10430177;28;1610;-72
2021/12/13 20:11:48;;;;;;;;;;;5.00;99.90;;;3.79;100.00;96743.50;10417575;28;1910;-71
2021/12/13 20:16:51;;;;;;;;;;;4.90;99.90;;;3.78;100.00;96739.22;10433140;28;1445;-71
2021/12/13 20:21:54;;;;;;;;;;;4.80;99.90;;;3.80;100.00;96737.97;10429086;28;1599;-72
2021/12/13 20:26:56;;;;;;;;;;;4.90;99.90;;;3.91;100.00;96741.03;10432994;28;1830;-70
2021/12/13 20:31:59;;;;;;;;;;;4.90;99.90;;;4.01;100.00;96746.75;10436362;28;1311;-69
2021/12/13 20:37:13;;;;;;;;;;;5.00;99.90;;;4.13;100.00;96737.06;10439460;28;1414;-71
2021/12/13 20:42:18;;;;;;;;;;;5.00;99.90;;;4.07;100.00;96735.25;10443389;28;1309;-70
2021/12/13 20:47:21;;;;;;;;;;;5.10;99.90;;;4.08;100.00;96731.59;10433125;28;1913;-71
2021/12/13 20:52:24;;;;;;;;;;;5.20;99.90;;;3.98;100.00;96736.50;10433842;28;1348;-71
2021/12/13 20:57:28;;;;;;;;;;;5.10;99.90;;;3.86;100.00;96724.88;10437819;28;1323;-71
2021/12/13 21:02:31;;;;;;;;;;;5.00;99.90;;;3.94;100.00;96717.47;10449988;28;1894;-71
2021/12/13 21:07:35;;;;;;;;;;;4.90;99.90;;;4.00;100.00;96729.13;10477526;28;2019;-72
2021/12/13 21:12:40;;;;;;;;;;;5.00;99.90;;;3.96;100.00;96723.44;10460925;28;1375;-71
2021/12/13 21:17:43;;;;;;;;;;;5.00;99.90;;;3.90;100.00;96724.25;10458102;28;1390;-70
2021/12/13 21:22:46;;;;;;;;;;;5.00;99.90;;;4.07;100.00;96713.97;10454115;28;1555;-69
2021/12/13 21:27:49;;;;;;;;;;;5.00;99.90;;;4.20;100.00;96721.94;10456516;28;2186;-71
2021/12/13 21:32:53;;;;;;;;;;;5.10;99.90;;;4.15;100.00;96726.25;10446212;28;1852;-70
2021/12/13 21:43:17;;;;;;;;;;;5.20;99.90;;;4.20;100.00;96724.59;10444598;28;2163;-70
2021/12/13 21:48:20;;;;;;;;;;;5.20;99.90;;;4.13;100.00;96726.44;10441587;28;2310;-71
2021/12/13 21:53:24;;;;;;;;;;;5.20;99.90;;;4.18;100.00;96731.13;10442812;28;1793;-71
2021/12/13 21:58:27;;;;;;;;;;;5.20;99.90;;;4.17;100.00;96718.84;10440546;28;1827;-71
2021/12/13 22:03:29;;;;;;;;;;;5.20;99.90;;;4.24;100.00;96715.16;10440289;28;1872;-71
2021/12/13 22:08:32;;;;;;;;;;;5.20;99.90;;;4.26;100.00;96712.25;10424229;28;1906;-71
2021/12/13 22:13:36;;;;;;;;;;;5.20;99.90;;;4.33;100.00;96708.56;10424737;28;1754;-70
2021/12/13 22:18:39;;;;;;;;;;;5.30;99.90;;;4.30;100.00;96714.31;10430202;28;1851;-71
2021/12/13 22:23:42;;;;;;;;;;;5.30;99.90;;;4.30;100.00;96724.13;10426744;28;1798;-71
2021/12/13 22:28:45;;;;;;;;;;;5.40;99.90;;;3.94;100.00;96714.00;10421889;28;1914;-69
2021/12/13 22:33:48;;;;;;;;;;;5.10;99.90;;;4.08;100.00;96710.31;10423884;28;1859;-70
2021/12/13 22:38:51;;;;;;;;;;;5.10;99.90;;;4.06;100.00;96699.03;10434345;28;1827;-70
2021/12/13 22:43:59;;;;;;;;;;;5.10;99.90;;;4.15;100.00;96699.63;10423349;28;1878;-70
2021/12/13 22:49:02;;;;;;;;;;;5.20;99.90;;;4.14;100.00;96704.16;10425407;28;1914;-70
2021/12/13 22:54:05;;;;;;;;;;;5.10;99.90;;;4.12;100.00;96695.53;10436322;28;1979;-70
2021/12/13 22:59:09;;;;;;;;;;;5.20;99.90;;;4.15;100.00;96704.97;10432468;28;1872;-70
2021/12/13 23:04:13;;;;;;;;;;;5.20;99.90;;;4.03;100.00;96708.25;10434976;28;1785;-70
2021/12/13 23:09:26;;;;;;;;;;;5.10;99.90;;;4.02;100.00;96700.50;10432599;28;1989;-70
2021/12/13 23:14:29;;;;;;;;;;;5.10;99.90;;;3.95;100.00;96691.72;10413405;28;1745;-71
2021/12/13 23:19:35;;;;;;;;;;;5.00;99.90;;;3.85;100.00;96691.31;10422281;28;1896;-70
2021/12/13 23:24:38;;;;;;;;;;;4.90;99.90;;;3.84;100.00;96698.50;10420617;28;1829;-70
2021/12/13 23:29:41;;;;;;;;;;;4.90;99.90;;;3.96;100.00;96696.00;10422331;28;1914;-70
2021/12/13 23:34:44;;;;;;;;;;;4.90;99.90;;;3.93;100.00;96686.59;10430229;28;2001;-70
2021/12/13 23:50:28;;;;;;;;;;;4.90;99.90;;;3.75;100.00;96684.63;10421480;28;1914;-71
2021/12/13 23:55:32;;;;;;;;;;;4.90;99.90;;;3.71;100.00;96691.38;10445167;28;1826;-71
